| time (UTC) | temp F | wind direction | speed MPH | gust MPH | rain 1hr in | rain 24hr in | rain mn in | humidity % | barometer mb |
| 20260509074555 | 51 | 0 | 1.0 | 2.0 | 0.00 | 0.00 | 0.00 | 59 | 1015.1 |
| 20260509073555 | 51 | 0 | 0.0 | 2.0 | 0.00 | 0.00 | 0.00 | 60 | 1015.0 |
| 20260509072515 | 51 | 0 | 0.0 | 2.0 | 0.00 | 0.00 | 0.00 | 59 | 1014.9 |
| 20260509071515 | 51 | 0.0 | 0.0 | 0.00 | 0.00 | 0.00 | 59 | 1014.7 | |
| 20260509070515 | 51 | 0.0 | 0.0 | 0.00 | 0.00 | 0.00 | 56 | 1014.8 | |
| 20260509065515 | 52 | 0.0 | 0.0 | 0.00 | 0.00 | 0.00 | 55 | 1014.9 | |
| 20260509064555 | 52 | 0.0 | 0.0 | 0.00 | 0.00 | 0.00 | 53 | 1014.8 | |
| 20260509062515 | 54 | 0.0 | 0.0 | 0.00 | 0.00 | 0.00 | 51 | 1014.8 | |
| 20260509061515 | 55 | 0.0 | 0.0 | 0.00 | 0.00 | 0.00 | 49 | 1014.7 | |
| 20260509060517 | 56 | 0.0 | 0.0 | 0.00 | 0.00 | 0.00 | 48 | 1015.0 | |
| 20260509055556 | 57 | 0.0 | 0.0 | 0.00 | 0.00 | 0.00 | 45 | 1015.1 | |
| 20260509054556 | 59 | 0.0 | 0.0 | 0.00 | 0.00 | 0.00 | 43 | 1015.3 | |
| 20260509052556 | 63 | 0.0 | 0.0 | 0.00 | 0.00 | 0.00 | 39 | 1015.8 | |
| 20260509051516 | 65 | 0.0 | 0.0 | 0.00 | 0.00 | 0.00 | 37 | 1016.2 | |
| 20260509050556 | 66 | 0 | 0.0 | 2.0 | 0.00 | 0.00 | 0.00 | 36 | 1016.1 |
| 20260509045636 | 67 | 0 | 0.0 | 2.0 | 0.00 | 0.00 | 0.00 | 35 | 1016.4 |
| 20260509044516 | 68 | 0 | 1.0 | 4.0 | 0.00 | 0.00 | 0.00 | 35 | 1016.5 |
| 20260509042556 | 69 | 0 | 1.0 | 5.0 | 0.00 | 0.00 | 0.00 | 34 | 1016.4 |
| 20260509041516 | 69 | 0 | 1.0 | 6.0 | 0.00 | 0.00 | 0.00 | 34 | 1016.4 |
| 20260509040516 | 70 | 0 | 1.0 | 9.0 | 0.00 | 0.00 | 0.00 | 33 | 1016.3 |
| 20260509034556 | 70 | 0 | 4.0 | 10.0 | 0.00 | 0.00 | 0.00 | 32 | 1015.7 |
| 20260509033516 | 70 | 0 | 2.0 | 8.0 | 0.00 | 0.00 | 0.00 | 32 | 1015.7 |
| 20260509032636 | 71 | 0 | 2.0 | 5.0 | 0.00 | 0.00 | 0.00 | 31 | 1015.4 |
| 20260509031556 | 71 | 0 | 2.0 | 8.0 | 0.00 | 0.00 | 0.00 | 30 | 1014.9 |
| 20260509030556 | 71 | 0 | 3.0 | 10.0 | 0.00 | 0.00 | 0.00 | 30 | 1014.7 |
| 20260509025516 | 72 | 0 | 2.0 | 11.0 | 0.00 | 0.00 | 0.00 | 29 | 1014.5 |
| 20260509024516 | 72 | 0 | 2.0 | 6.0 | 0.00 | 0.00 | 0.00 | 29 | 1014.4 |
| 20260509023636 | 72 | 0 | 3.0 | 6.0 | 0.00 | 0.00 | 0.00 | 29 | 1013.9 |
| 20260509022515 | 73 | 0 | 2.0 | 5.0 | 0.00 | 0.00 | 0.00 | 28 | 1013.8 |
| 20260509021515 | 74 | 0 | 3.0 | 9.0 | 0.00 | 0.00 | 0.00 | 28 | 1013.7 |
| 20260509015555 | 75 | 0 | 3.0 | 8.0 | 0.00 | 0.00 | 0.00 | 27 | 1013.5 |
| 20260509014635 | 76 | 0 | 2.0 | 10.0 | 0.00 | 0.00 | 0.00 | 26 | 1013.2 |
| 20260509013555 | 76 | 0 | 3.0 | 6.0 | 0.00 | 0.00 | 0.00 | 25 | 1013.1 |
| 20260509012555 | 77 | 0 | 1.0 | 8.0 | 0.00 | 0.00 | 0.00 | 24 | 1012.9 |
| 20260509011515 | 79 | 0 | 3.0 | 8.0 | 0.00 | 0.00 | 0.00 | 24 | 1012.7 |
| 20260509010515 | 79 | 0 | 2.0 | 6.0 | 0.00 | 0.00 | 0.00 | 23 | 1012.4 |
| 20260509005635 | 80 | 0 | 3.0 | 8.0 | 0.00 | 0.00 | 0.00 | 22 | 1011.7 |
| 20260509004635 | 81 | 0 | 2.0 | 9.0 | 0.00 | 0.00 | 0.00 | 22 | 1011.3 |
| 20260509003555 | 81 | 0 | 3.0 | 10.0 | 0.00 | 0.00 | 0.00 | 21 | 1011.3 |
| 20260509002635 | 82 | 0 | 3.0 | 8.0 | 0.00 | 0.00 | 0.00 | 20 | 1011.4 |
| 20260509001515 | 83 | 0 | 1.0 | 3.0 | 0.00 | 0.00 | 0.00 | 20 | 1011.6 |
| 20260509000515 | 83 | 0 | 3.0 | 10.0 | 0.00 | 0.00 | 0.00 | 20 | 1012.0 |
| 20260508235515 | 82 | 0 | 3.0 | 6.0 | 0.00 | 0.00 | 0.00 | 19 | 1012.0 |
| 20260508234515 | 83 | 0 | 5.0 | 11.0 | 0.00 | 0.00 | 0.00 | 19 | 1012.4 |
| 20260508232515 | 84 | 0 | 2.0 | 5.0 | 0.00 | 0.00 | 0.00 | 19 | 1012.6 |
| 20260508231555 | 84 | 0 | 3.0 | 8.0 | 0.00 | 0.00 | 0.00 | 18 | 1012.7 |
| 20260508230515 | 83 | 0 | 3.0 | 9.0 | 0.00 | 0.00 | 0.00 | 19 | 1012.6 |
| 20260508225515 | 83 | 0 | 5.0 | 13.0 | 0.00 | 0.00 | 0.00 | 19 | 1012.6 |
| 20260508223515 | 83 | 0 | 3.0 | 10.0 | 0.00 | 0.00 | 0.00 | 18 | 1012.8 |
| 20260508222515 | 83 | 0 | 3.0 | 11.0 | 0.00 | 0.00 | 0.00 | 19 | 1013.0 |
| 20260508221515 | 83 | 0 | 4.0 | 11.0 | 0.00 | 0.00 | 0.00 | 20 | 1013.2 |
| 20260508220555 | 82 | 0 | 8.0 | 17.0 | 0.00 | 0.00 | 0.00 | 20 | 1013.1 |
| 20260508215515 | 82 | 0 | 7.0 | 15.0 | 0.00 | 0.00 | 0.00 | 20 | 1013.4 |
| 20260508214635 | 83 | 0 | 8.0 | 14.0 | 0.00 | 0.00 | 0.00 | 20 | 1013.3 |
| 20260508213515 | 83 | 0 | 4.0 | 14.0 | 0.00 | 0.00 | 0.00 | 19 | 1013.2 |
| 20260508210515 | 80 | 0 | 3.0 | 11.0 | 0.00 | 0.00 | 0.00 | 20 | 1012.2 |
| 20260508205555 | 82 | 0 | 5.0 | 11.0 | 0.00 | 0.00 | 0.00 | 19 | 1012.2 |
| 20260508204517 | 82 | 0 | 4.0 | 10.0 | 0.00 | 0.00 | 0.00 | 20 | 1012.3 |
| 20260508203517 | 82 | 0 | 6.0 | 12.0 | 0.00 | 0.00 | 0.00 | 20 | 1012.4 |
| 20260508201517 | 81 | 0 | 3.0 | 11.0 | 0.00 | 0.00 | 0.00 | 21 | 1012.4 |
| 20260508200516 | 81 | 0 | 5.0 | 13.0 | 0.00 | 0.00 | 0.00 | 21 | 1012.6 |
| 20260508195556 | 82 | 0 | 5.0 | 18.0 | 0.00 | 0.00 | 0.00 | 20 | 1013.0 |
| 20260508194557 | 82 | 0 | 3.0 | 12.0 | 0.00 | 0.00 | 0.00 | 21 | 1013.1 |
| 20260508193516 | 81 | 0 | 4.0 | 10.0 | 0.00 | 0.00 | 0.00 | 22 | 1013.1 |
| 20260508192516 | 80 | 0 | 6.0 | 14.0 | 0.00 | 0.00 | 0.00 | 22 | 1013.0 |
| 20260508191637 | 80 | 0 | 5.0 | 14.0 | 0.00 | 0.00 | 0.00 | 22 | 1013.0 |
| 20260508190515 | 80 | 0 | 7.0 | 12.0 | 0.00 | 0.00 | 0.00 | 22 | 1013.3 |
| 20260508185556 | 81 | 0 | 6.0 | 14.0 | 0.00 | 0.00 | 0.00 | 22 | 1013.5 |
| 20260508184516 | 80 | 0 | 3.0 | 14.0 | 0.00 | 0.00 | 0.00 | 22 | 1013.5 |
| 20260508183637 | 80 | 0 | 8.0 | 15.0 | 0.00 | 0.00 | 0.00 | 23 | 1013.6 |
| 20260508182516 | 80 | 0 | 6.0 | 10.0 | 0.00 | 0.00 | 0.00 | 22 | 1013.8 |
| 20260508181516 | 79 | 0 | 4.0 | 12.0 | 0.00 | 0.00 | 0.00 | 23 | 1013.7 |
| 20260508180637 | 79 | 0 | 8.0 | 15.0 | 0.00 | 0.00 | 0.00 | 23 | 1013.9 |
| 20260508175516 | 79 | 0 | 8.0 | 15.0 | 0.00 | 0.00 | 0.00 | 23 | 1014.1 |
| 20260508174556 | 78 | 0 | 9.0 | 15.0 | 0.00 | 0.00 | 0.00 | 25 | 1014.5 |
| 20260508173516 | 78 | 0 | 5.0 | 10.0 | 0.00 | 0.00 | 0.00 | 26 | 1014.7 |
| 20260508172516 | 78 | 0 | 9.0 | 16.0 | 0.00 | 0.00 | 0.00 | 26 | 1014.9 |
| 20260508171516 | 77 | 0 | 6.0 | 15.0 | 0.00 | 0.00 | 0.00 | 26 | 1014.9 |
| 20260508170516 | 77 | 0 | 7.0 | 12.0 | 0.00 | 0.00 | 0.00 | 27 | 1014.9 |
| 20260508165636 | 77 | 0 | 7.0 | 13.0 | 0.00 | 0.00 | 0.00 | 27 | 1015.1 |
| 20260508164516 | 76 | 0 | 8.0 | 13.0 | 0.00 | 0.00 | 0.00 | 28 | 1015.3 |
| 20260508163516 | 76 | 0 | 6.0 | 11.0 | 0.00 | 0.00 | 0.00 | 29 | 1015.4 |
| 20260508162516 | 76 | 0 | 8.0 | 15.0 | 0.00 | 0.00 | 0.00 | 27 | 1015.6 |
| 20260508161516 | 75 | 0 | 5.0 | 11.0 | 0.00 | 0.00 | 0.00 | 29 | 1015.6 |
| 20260508154556 | 72 | 0 | 2.0 | 6.0 | 0.00 | 0.00 | 0.00 | 31 | 1015.7 |
| 20260508153636 | 72 | 0 | 4.0 | 9.0 | 0.00 | 0.00 | 0.00 | 31 | 1015.9 |
| 20260508152636 | 72 | 0 | 4.0 | 8.0 | 0.00 | 0.00 | 0.00 | 33 | 1016.1 |
| 20260508151516 | 70 | 0 | 3.0 | 8.0 | 0.00 | 0.00 | 0.00 | 35 | 1016.1 |
| 20260508150516 | 69 | 0 | 3.0 | 6.0 | 0.00 | 0.00 | 0.00 | 37 | 1016.4 |
| 20260508145516 | 67 | 0 | 2.0 | 5.0 | 0.00 | 0.00 | 0.00 | 40 | 1016.6 |
| 20260508144516 | 66 | 0 | 3.0 | 9.0 | 0.00 | 0.00 | 0.00 | 40 | 1016.7 |
| 20260508143556 | 65 | 0 | 5.0 | 10.0 | 0.00 | 0.00 | 0.00 | 41 | 1016.9 |
| 20260508142636 | 64 | 0 | 4.0 | 10.0 | 0.00 | 0.00 | 0.00 | 41 | 1017.2 |
| 20260508141556 | 64 | 0 | 4.0 | 9.0 | 0.00 | 0.00 | 0.00 | 43 | 1017.3 |
| 20260508140636 | 63 | 0 | 3.0 | 6.0 | 0.00 | 0.00 | 0.00 | 44 | 1017.3 |
| 20260508135516 | 62 | 0 | 5.0 | 12.0 | 0.00 | 0.00 | 0.00 | 45 | 1017.6 |
| 20260508134516 | 60 | 0 | 4.0 | 8.0 | 0.00 | 0.00 | 0.00 | 47 | 1017.5 |
| 20260508133516 | 58 | 0 | 4.0 | 9.0 | 0.00 | 0.00 | 0.00 | 51 | 1017.5 |
| 20260508132516 | 57 | 0 | 4.0 | 8.0 | 0.00 | 0.00 | 0.00 | 54 | 1017.4 |
| 20260508131636 | 55 | 0 | 4.0 | 8.0 | 0.00 | 0.00 | 0.00 | 57 | 1017.4 |
| 20260508125556 | 48 | 0 | 4.0 | 6.0 | 0.00 | 0.00 | 0.00 | 71 | 1016.2 |
| 20260508124515 | 44 | 0.0 | 0.0 | 0.00 | 0.00 | 0.00 | 75 | 1015.5 | |
| 20260508123636 | 43 | 0.0 | 0.0 | 0.00 | 0.00 | 0.00 | 75 | 1015.1 | |
| 20260508122555 | 43 | 0.0 | 0.0 | 0.00 | 0.00 | 0.00 | 71 | 1015.2 | |
| 20260508121556 | 44 | 0.0 | 0.0 | 0.00 | 0.00 | 0.00 | 70 | 1015.2 | |
| 20260508120516 | 46 | 0.0 | 2.0 | 0.00 | 0.00 | 0.00 | 67 | 1015.3 | |
| 20260508115516 | 48 | 0 | 0.0 | 2.0 | 0.00 | 0.00 | 0.00 | 65 | 1015.6 |
| 20260508114515 | 49 | 0 | 0.0 | 3.0 | 0.00 | 0.00 | 0.00 | 62 | 1015.7 |
| 20260508113515 | 49 | 0 | 0.0 | 3.0 | 0.00 | 0.00 | 0.00 | 63 | 1015.6 |
| 20260508111555 | 50 | 0 | 3.0 | 5.0 | 0.00 | 0.00 | 0.00 | 59 | 1015.8 |
| 20260508110515 | 51 | 0 | 2.0 | 3.0 | 0.00 | 0.00 | 0.00 | 59 | 1015.7 |
| 20260508105635 | 50 | 0 | 1.0 | 4.0 | 0.00 | 0.00 | 0.00 | 60 | 1015.8 |
| 20260508104555 | 51 | 0 | 1.0 | 3.0 | 0.00 | 0.00 | 0.00 | 61 | 1015.8 |
| 20260508103556 | 52 | 0 | 2.0 | 8.0 | 0.00 | 0.00 | 0.00 | 60 | 1016.2 |
| 20260508100515 | 53 | 0 | 2.0 | 4.0 | 0.00 | 0.00 | 0.00 | 58 | 1016.2 |
| 20260508095515 | 54 | 0 | 1.0 | 4.0 | 0.00 | 0.00 | 0.00 | 58 | 1016.1 |
| 20260508094515 | 53 | 0 | 2.0 | 4.0 | 0.00 | 0.00 | 0.00 | 61 | 1016.0 |
| 20260508092555 | 49 | 0 | 2.0 | 5.0 | 0.00 | 0.00 | 0.00 | 69 | 1015.2 |
| 20260508091515 | 48 | 0 | 2.0 | 4.0 | 0.00 | 0.00 | 0.00 | 73 | 1015.2 |
| 20260508090515 | 44 | 0 | 1.0 | 6.0 | 0.00 | 0.00 | 0.00 | 77 | 1014.5 |
| 20260508085555 | 43 | 0 | 2.0 | 3.0 | 0.00 | 0.00 | 0.00 | 78 | 1014.0 |
| 20260508084515 | 43 | 0 | 1.0 | 3.0 | 0.00 | 0.00 | 0.00 | 77 | 1013.9 |
| 20260508083635 | 43 | 0 | 1.0 | 3.0 | 0.00 | 0.00 | 0.00 | 78 | 1014.1 |
| 20260508082515 | 43 | 0 | 1.0 | 3.0 | 0.00 | 0.00 | 0.00 | 79 | 1014.1 |
| 20260508081515 | 42 | 0 | 2.0 | 4.0 | 0.00 | 0.00 | 0.00 | 79 | 1014.0 |
| 20260508080555 | 42 | 0 | 1.0 | 4.0 | 0.00 | 0.00 | 0.00 | 79 | 1014.1 |
| 20260508075515 | 42 | 0 | 1.0 | 3.0 | 0.00 | 0.00 | 0.00 | 78 | 1014.3 |